createdAt,value
2023-02-26T00:00:44.495Z,84.81
2023-02-26T00:03:33.101Z,84.60
2023-02-26T00:06:02.475Z,84.47
2023-02-26T00:08:28.384Z,84.41
2023-02-26T00:10:57.568Z,84.29
2023-02-26T00:13:26.724Z,83.80
2023-02-26T00:15:56.289Z,83.65
2023-02-26T00:18:25.744Z,83.75
2023-02-26T00:20:54.111Z,83.94
2023-02-26T00:23:30.314Z,84.00
2023-02-26T00:26:16.421Z,84.01
2023-02-26T00:28:46.194Z,83.73
2023-02-26T00:31:32.756Z,83.32
2023-02-26T00:34:12.995Z,82.69
2023-02-26T00:36:43.799Z,82.58
2023-02-26T00:39:30.025Z,82.48
2023-02-26T00:41:59.333Z,82.38
2023-02-26T00:44:38.708Z,82.29
2023-02-26T00:47:10.214Z,82.07
2023-02-26T00:49:48.320Z,81.98
2023-02-26T00:52:40.519Z,81.85
2023-02-26T00:55:25.536Z,81.86
2023-02-26T00:58:12.450Z,81.82
2023-02-26T01:00:38.497Z,81.91
2023-02-26T01:03:25.005Z,81.64
2023-02-26T01:05:55.070Z,81.49
2023-02-26T01:08:33.163Z,81.64
2023-02-26T01:11:02.988Z,81.45
2023-02-26T01:13:29.277Z,81.24
2023-02-26T01:16:00.521Z,81.13
2023-02-26T01:18:43.156Z,81.17
2023-02-26T01:21:16.519Z,80.88
2023-02-26T01:23:53.215Z,80.87
2023-02-26T01:26:29.338Z,80.39
2023-02-26T01:28:59.206Z,80.38
2023-02-26T01:31:40.607Z,80.53
2023-02-26T01:34:15.904Z,80.44
2023-02-26T01:36:57.465Z,80.58
2023-02-26T01:39:37.884Z,80.61
2023-02-26T01:42:20.836Z,80.28
2023-02-26T01:44:56.282Z,80.26
2023-02-26T01:47:29.880Z,80.08
2023-02-26T01:50:13.118Z,80.04
2023-02-26T01:53:01.835Z,79.92
2023-02-26T01:55:30.302Z,79.74
2023-02-26T01:58:02.730Z,79.46
2023-02-26T02:00:48.738Z,79.60
2023-02-26T02:03:25.882Z,79.78
2023-02-26T02:05:58.373Z,79.77
2023-02-26T02:08:44.475Z,79.78
2023-02-26T02:11:31.280Z,79.82
2023-02-26T02:14:07.802Z,79.91
2023-02-26T02:16:49.314Z,79.77
2023-02-26T02:19:49.561Z,79.29
2023-02-26T02:22:52.573Z,79.16
2023-02-26T02:25:46.950Z,79.11
2023-02-26T02:28:39.892Z,79.36
2023-02-26T02:31:23.381Z,79.48
2023-02-26T02:34:04.655Z,79.61
2023-02-26T02:36:54.243Z,79.74
2023-02-26T02:39:42.424Z,79.66
2023-02-26T02:42:32.100Z,79.49
2023-02-26T02:45:21.021Z,79.37
2023-02-26T02:47:59.379Z,79.33
2023-02-26T02:50:47.518Z,79.23
2023-02-26T02:53:19.484Z,79.19
2023-02-26T02:55:50.116Z,79.11
2023-02-26T02:58:40.043Z,79.03
2023-02-26T03:01:17.670Z,78.85
2023-02-26T04:11:26.315Z,78.27
2023-02-26T04:14:12.306Z,78.46
2023-02-26T04:16:58.771Z,78.25
2023-02-26T04:19:27.808Z,78.11
2023-02-26T04:22:05.445Z,78.39
2023-02-26T04:24:44.543Z,78.47
2023-02-26T04:27:30.418Z,78.44
2023-02-26T04:30:16.468Z,78.61
2023-02-26T04:33:02.501Z,78.62
2023-02-26T04:35:49.113Z,78.58
2023-02-26T04:38:35.200Z,78.54
2023-02-26T04:41:10.136Z,78.48
2023-02-26T04:43:56.066Z,78.44
2023-02-26T04:46:42.288Z,78.46
2023-02-26T04:49:28.327Z,78.67
2023-02-26T04:52:07.612Z,78.73
2023-02-26T04:54:43.510Z,78.73
2023-02-26T04:57:13.554Z,78.70
2023-02-26T04:59:39.852Z,78.74
2023-02-26T05:02:19.277Z,78.67
2023-02-26T05:05:05.419Z,78.62
2023-02-26T05:07:42.266Z,78.43
2023-02-26T05:10:17.524Z,78.19
2023-02-26T05:12:52.375Z,77.77
2023-02-26T05:15:38.179Z,77.94
2023-02-26T05:18:17.978Z,77.90
2023-02-26T05:20:46.195Z,77.85
2023-02-26T05:23:15.055Z,77.73
2023-02-26T05:25:51.918Z,77.73
2023-02-26T05:28:27.668Z,77.72
2023-02-26T05:31:13.774Z,77.62
2023-02-26T05:33:57.372Z,77.51
2023-02-26T05:36:23.682Z,77.56
2023-02-26T05:38:54.216Z,77.30
2023-02-26T05:41:40.413Z,77.23
2023-02-26T05:44:16.110Z,77.12
2023-02-26T05:47:02.672Z,77.29
2023-02-26T05:49:48.500Z,77.17
2023-02-26T05:52:17.542Z,77.03
2023-02-26T05:55:03.379Z,75.87
2023-02-26T05:57:49.481Z,75.52
2023-02-26T06:00:25.704Z,75.12
2023-02-26T06:03:01.623Z,74.30
2023-02-26T06:05:41.130Z,74.41
2023-02-26T06:08:09.516Z,74.44
2023-02-26T06:10:49.255Z,73.95
2023-02-26T06:13:18.299Z,73.11
2023-02-26T06:15:47.138Z,73.33
2023-02-26T06:18:34.100Z,72.85
2023-02-26T06:21:20.260Z,72.98
2023-02-26T06:24:07.681Z,72.47
2023-02-26T06:26:43.447Z,72.53
2023-02-26T06:29:29.418Z,72.46
2023-02-26T06:32:07.132Z,72.64
2023-02-26T06:34:53.117Z,73.01
2023-02-26T06:37:39.008Z,72.99
2023-02-26T06:40:12.097Z,73.03
2023-02-26T06:42:58.496Z,73.17
2023-02-26T06:45:37.184Z,73.20
2023-02-26T06:48:23.317Z,73.01
2023-02-26T06:50:58.398Z,72.78
2023-02-26T06:53:43.540Z,72.77
2023-02-26T06:56:29.796Z,72.56
2023-02-26T06:59:06.102Z,72.75
2023-02-26T07:01:52.194Z,72.74
2023-02-26T07:04:38.080Z,72.06
2023-02-26T07:07:17.828Z,72.14
2023-02-26T07:10:04.018Z,71.28
2023-02-26T07:12:49.906Z,71.25
2023-02-26T07:15:18.803Z,70.62
2023-02-26T07:18:04.875Z,70.41
2023-02-26T07:20:51.601Z,70.49
2023-02-26T07:23:37.391Z,70.31
2023-02-26T07:26:12.060Z,70.20
2023-02-26T07:28:47.668Z,70.22
2023-02-26T07:31:34.412Z,70.45
2023-02-26T07:34:20.464Z,70.47
2023-02-26T07:37:06.476Z,70.23
2023-02-26T07:39:52.826Z,70.17
2023-02-26T07:42:22.303Z,69.82
2023-02-26T07:45:09.691Z,69.89
2023-02-26T07:47:44.228Z,69.86
2023-02-26T07:50:30.429Z,69.71
2023-02-26T07:53:17.158Z,69.64
2023-02-26T07:56:03.149Z,69.29
2023-02-26T07:58:31.905Z,69.11
2023-02-26T08:01:17.785Z,69.08
2023-02-26T08:03:52.837Z,69.20
2023-02-26T08:06:22.014Z,69.25
2023-02-26T08:09:08.296Z,69.08
2023-02-26T08:11:54.143Z,69.43
2023-02-26T08:14:42.004Z,69.93
2023-02-26T08:17:28.019Z,69.87
2023-02-26T08:20:15.422Z,69.74
2023-02-26T08:22:53.014Z,69.57
2023-02-26T08:25:20.998Z,69.35
2023-02-26T08:27:46.550Z,68.41
2023-02-26T08:30:15.564Z,68.25
2023-02-26T08:33:01.391Z,67.45
2023-02-26T08:35:47.311Z,68.06
2023-02-26T08:38:32.478Z,68.18
2023-02-26T08:41:19.083Z,68.04
2023-02-26T08:44:05.722Z,67.77
2023-02-26T08:46:51.904Z,67.81
2023-02-26T08:49:38.191Z,67.74
2023-02-26T08:52:15.521Z,67.50
2023-02-26T08:54:44.471Z,67.98
2023-02-26T08:57:15.798Z,68.37
2023-02-26T08:59:44.775Z,68.58
2023-02-26T09:02:14.034Z,68.32
2023-02-26T09:05:00.215Z,67.66
2023-02-26T09:07:29.240Z,67.67
2023-02-26T09:10:15.605Z,67.79
2023-02-26T09:12:50.894Z,67.99
2023-02-26T09:15:16.794Z,67.83
2023-02-26T09:17:56.145Z,67.91
2023-02-26T09:20:32.084Z,67.57
2023-02-26T09:23:17.879Z,67.83
2023-02-26T09:26:04.123Z,67.93
2023-02-26T09:28:50.136Z,67.69
2023-02-26T09:31:36.625Z,67.67
2023-02-26T09:34:15.320Z,67.25
2023-02-26T09:37:01.058Z,67.18
2023-02-26T09:39:38.029Z,67.27
2023-02-26T09:42:23.755Z,67.40
2023-02-26T09:45:13.802Z,67.46
2023-02-26T09:47:41.974Z,67.36
2023-02-26T09:50:30.938Z,67.36
2023-02-26T09:53:19.592Z,67.40
2023-02-26T09:55:50.567Z,67.79
2023-02-26T09:58:38.884Z,68.00
2023-02-26T10:01:26.867Z,67.75
2023-02-26T10:04:09.006Z,67.95
2023-02-26T10:07:01.667Z,68.19
2023-02-26T10:09:33.121Z,68.19
2023-02-26T10:12:22.288Z,68.17
2023-02-26T10:15:13.410Z,68.03
2023-02-26T10:17:56.322Z,68.12
2023-02-26T10:20:25.238Z,68.28
2023-02-26T10:23:18.481Z,68.33
2023-02-26T10:25:49.224Z,68.35
2023-02-26T10:28:48.363Z,68.14
2023-02-26T10:31:24.755Z,67.45
2023-02-26T10:33:58.048Z,67.81
2023-02-26T10:36:41.917Z,67.07
2023-02-26T10:39:17.452Z,67.05
2023-02-26T10:42:05.080Z,67.35
2023-02-26T10:44:35.816Z,67.76
2023-02-26T10:47:30.128Z,67.92
2023-02-26T10:50:12.060Z,67.93
2023-02-26T10:52:38.615Z,67.98
2023-02-26T10:55:22.786Z,67.90
2023-02-26T10:58:04.876Z,67.58
2023-02-26T11:00:43.141Z,68.09
2023-02-26T11:03:24.907Z,67.54
2023-02-26T11:05:53.907Z,66.90
2023-02-26T11:08:41.972Z,66.12
2023-02-26T11:11:10.769Z,65.57
2023-02-26T11:13:49.381Z,64.46
2023-02-26T11:16:35.868Z,64.52
2023-02-26T11:19:15.161Z,64.12
2023-02-26T11:22:02.449Z,63.94
2023-02-26T11:24:40.604Z,63.86
2023-02-26T11:27:30.041Z,63.48
2023-02-26T11:29:57.786Z,63.10
2023-02-26T11:32:33.900Z,62.78
2023-02-26T11:35:14.939Z,62.21
2023-02-26T11:37:41.673Z,62.56
2023-02-26T11:40:32.408Z,63.16
2023-02-26T11:43:10.807Z,63.36
2023-02-26T11:45:49.242Z,63.08
2023-02-26T11:48:39.484Z,62.81
2023-02-26T11:51:10.833Z,62.78
2023-02-26T11:53:37.082Z,62.97
2023-02-26T11:56:11.023Z,62.88
2023-02-26T11:58:41.241Z,62.82
2023-02-26T12:01:11.822Z,62.86
2023-02-26T12:03:51.177Z,62.59
2023-02-26T12:06:36.331Z,62.76
2023-02-26T12:09:22.998Z,62.96
2023-02-26T12:12:26.137Z,63.14
2023-02-26T12:15:03.579Z,63.15
2023-02-26T12:17:52.829Z,63.08
2023-02-26T12:20:43.403Z,63.30
2023-02-26T12:23:29.742Z,63.33
2023-02-26T12:26:24.644Z,63.25
2023-02-26T12:29:17.348Z,63.00
2023-02-26T12:32:11.583Z,62.97
2023-02-26T12:35:17.264Z,62.99
2023-02-26T12:38:09.708Z,62.79
2023-02-26T12:41:08.959Z,62.76
2023-02-26T12:43:44.334Z,62.54
2023-02-26T12:46:19.577Z,60.91
2023-02-26T12:49:05.624Z,60.76
2023-02-26T12:51:38.958Z,61.06
2023-02-26T12:54:14.967Z,60.58
2023-02-26T12:57:02.178Z,60.69
2023-02-26T12:59:49.784Z,59.37
2023-02-26T13:02:31.394Z,60.57
2023-02-26T13:05:07.015Z,60.68
2023-02-26T13:07:42.713Z,60.65
2023-02-26T13:10:24.369Z,60.61
2023-02-26T13:12:55.563Z,59.92
2023-02-26T13:15:39.336Z,60.46
2023-02-26T13:18:09.221Z,60.53
2023-02-26T13:20:54.251Z,59.95
2023-02-26T13:23:26.398Z,59.68
2023-02-26T13:26:14.963Z,59.93
2023-02-26T13:28:44.968Z,60.27
2023-02-26T13:31:19.004Z,60.55
2023-02-26T13:33:47.649Z,60.36
2023-02-26T13:36:35.185Z,60.45
2023-02-26T13:39:16.748Z,60.26
2023-02-26T13:42:09.436Z,60.17
2023-02-26T13:44:54.204Z,60.22
2023-02-26T13:47:50.300Z,59.65
2023-02-26T13:50:31.810Z,59.73
2023-02-26T13:53:40.029Z,59.16
2023-02-26T13:56:14.397Z,59.07
2023-02-26T13:58:53.436Z,58.87
2023-02-26T14:01:20.158Z,59.07
2023-02-26T14:04:24.124Z,59.49
2023-02-26T14:07:14.518Z,59.23
2023-02-26T14:09:57.897Z,59.46
2023-02-26T14:12:44.315Z,59.12
2023-02-26T14:15:38.597Z,59.23
2023-02-26T14:18:27.124Z,59.15
2023-02-26T14:21:38.330Z,59.51
2023-02-26T14:24:26.749Z,59.30
2023-02-26T14:27:05.116Z,58.99
2023-02-26T14:29:40.194Z,59.10
2023-02-26T14:32:31.379Z,59.11
2023-02-26T14:35:01.894Z,59.35
2023-02-26T14:37:58.705Z,59.11
2023-02-26T14:40:25.853Z,58.89
2023-02-26T14:43:17.834Z,58.25
2023-02-26T14:46:05.230Z,58.94
2023-02-26T14:48:51.456Z,59.23
2023-02-26T14:51:43.898Z,59.41
2023-02-26T14:54:35.576Z,59.47
2023-02-26T14:57:26.739Z,59.73
2023-02-26T15:00:19.148Z,59.94
2023-02-26T15:03:23.840Z,60.08
2023-02-26T15:06:10.313Z,60.36
2023-02-26T15:08:55.315Z,60.54
2023-02-26T15:11:28.258Z,60.48
2023-02-26T15:14:03.582Z,60.73
2023-02-26T15:16:46.362Z,61.04
2023-02-26T15:19:40.214Z,61.08
2023-02-26T15:22:26.030Z,60.96
2023-02-26T15:25:03.871Z,61.01
2023-02-26T15:27:49.854Z,61.09
2023-02-26T15:30:36.425Z,61.13
2023-02-26T15:33:24.801Z,61.20
2023-02-26T15:36:13.630Z,61.35
2023-02-26T15:39:00.313Z,61.44
2023-02-26T15:41:48.419Z,61.62
2023-02-26T15:44:28.521Z,61.48
2023-02-26T15:47:09.626Z,61.42
2023-02-26T15:49:39.468Z,61.60
2023-02-26T15:52:27.129Z,61.36
2023-02-26T15:55:16.210Z,61.61
2023-02-26T15:58:02.779Z,61.67
2023-02-26T16:00:53.627Z,61.88
2023-02-26T16:03:31.653Z,61.97
2023-02-26T16:06:19.135Z,62.11
2023-02-26T16:09:06.126Z,62.15
2023-02-26T16:11:45.552Z,62.21
2023-02-26T16:14:34.801Z,62.26
2023-02-26T16:17:24.890Z,62.55
2023-02-26T16:19:55.621Z,62.47
2023-02-26T16:22:44.534Z,62.68
2023-02-26T16:25:18.624Z,62.88
2023-02-26T16:27:49.638Z,62.96
2023-02-26T16:30:36.955Z,63.12
2023-02-26T16:33:23.806Z,63.12
2023-02-26T16:36:14.664Z,63.12
2023-02-26T16:38:51.958Z,63.23
2023-02-26T16:41:38.201Z,63.37
2023-02-26T16:47:28.150Z,63.51
2023-02-26T16:50:18.208Z,63.52
2023-02-26T16:52:49.099Z,63.49
2023-02-26T16:55:36.490Z,63.54
2023-02-26T16:58:23.251Z,63.56
2023-02-26T17:01:14.560Z,63.76
2023-02-26T17:03:55.848Z,63.88
2023-02-26T17:06:24.657Z,63.80
2023-02-26T17:09:29.361Z,63.94
2023-02-26T17:12:16.788Z,64.08
2023-02-26T17:14:43.674Z,64.13
2023-02-26T17:17:29.514Z,64.20
2023-02-26T17:20:15.826Z,64.42
2023-02-26T17:23:03.621Z,64.36
2023-02-26T17:25:41.041Z,64.32
2023-02-26T17:28:28.145Z,64.41
2023-02-26T17:31:04.588Z,64.53
2023-02-26T17:33:51.176Z,64.52
2023-02-26T17:36:37.171Z,64.58
2023-02-26T17:39:15.117Z,64.70
2023-02-26T17:41:45.697Z,64.70
2023-02-26T17:44:31.426Z,64.77
2023-02-26T17:47:14.156Z,65.01
2023-02-26T17:49:40.016Z,64.96
2023-02-26T17:52:26.776Z,65.10
2023-02-26T17:54:56.121Z,65.07
2023-02-26T17:57:43.950Z,65.12
2023-02-26T18:00:15.560Z,65.14
2023-02-26T18:02:41.172Z,65.16
2023-02-26T18:05:18.504Z,65.28
2023-02-26T18:08:04.506Z,65.37
2023-02-26T18:10:30.476Z,65.29
2023-02-26T18:13:16.531Z,65.36
2023-02-26T18:16:03.162Z,65.28
2023-02-26T18:18:49.471Z,65.25
2023-02-26T18:21:35.550Z,65.29
2023-02-26T18:24:21.434Z,65.28
2023-02-26T18:26:57.716Z,65.27
2023-02-26T18:29:44.396Z,65.16
2023-02-26T18:32:11.026Z,65.02
2023-02-26T18:34:47.767Z,65.07
2023-02-26T18:37:35.196Z,64.92
2023-02-26T18:40:22.967Z,64.93
2023-02-26T18:44:16.292Z,65.31
2023-02-26T18:46:56.338Z,64.97
2023-02-26T18:49:35.206Z,64.71
2023-02-26T18:52:03.233Z,64.84
2023-02-26T18:54:51.519Z,64.57
2023-02-26T18:57:30.684Z,64.75
2023-02-26T19:00:14.443Z,64.73
2023-02-26T19:03:01.998Z,64.56
2023-02-26T19:05:33.470Z,64.58
2023-02-26T19:08:11.203Z,64.27
2023-02-26T19:10:39.393Z,64.10
2023-02-26T19:13:27.309Z,63.92
2023-02-26T19:15:55.603Z,63.80
2023-02-26T19:18:22.940Z,63.64
2023-02-26T19:20:54.331Z,63.70
2023-02-26T19:23:32.423Z,63.61
2023-02-26T19:25:59.739Z,63.47
2023-02-26T19:28:41.209Z,63.40
2023-02-26T19:31:11.723Z,63.27
2023-02-26T19:33:59.364Z,63.17
2023-02-26T19:36:48.448Z,63.05
2023-02-26T19:39:26.812Z,62.80
2023-02-26T19:42:14.612Z,62.68
2023-02-26T19:44:51.886Z,62.58
2023-02-26T19:47:18.993Z,62.19
2023-02-26T19:49:46.379Z,62.26
2023-02-26T19:52:16.676Z,62.11
2023-02-26T19:55:04.724Z,61.95
2023-02-26T19:57:52.470Z,61.80
2023-02-26T20:00:23.498Z,61.72
2023-02-26T20:02:50.840Z,61.77
2023-02-26T20:05:39.736Z,61.65
2023-02-26T20:08:07.601Z,61.53
2023-02-26T20:10:41.008Z,61.41
2023-02-26T20:13:30.409Z,61.19
2023-02-26T20:15:58.670Z,60.86
2023-02-26T20:18:46.096Z,60.73
2023-02-26T20:21:33.586Z,60.75
2023-02-26T20:24:21.335Z,60.66
2023-02-26T20:26:49.169Z,60.65
2023-02-26T20:29:18.494Z,60.36
2023-02-26T20:31:49.777Z,60.43
2023-02-26T20:34:19.375Z,60.43
2023-02-26T20:36:48.468Z,60.42
2023-02-26T20:39:19.688Z,60.31
2023-02-26T20:42:07.301Z,60.40
2023-02-26T20:44:48.659Z,60.22
2023-02-26T20:47:27.109Z,60.23
2023-02-26T20:49:54.375Z,60.20
2023-02-26T20:52:24.408Z,60.00
2023-02-26T20:54:59.182Z,59.96
2023-02-26T20:57:29.516Z,60.01
2023-02-26T21:00:18.924Z,59.96
2023-02-26T21:03:08.070Z,60.07
2023-02-26T21:05:49.221Z,60.08
2023-02-26T21:08:16.715Z,60.12
2023-02-26T21:10:54.906Z,60.25
2023-02-26T21:13:33.840Z,60.42
2023-02-26T21:16:12.963Z,60.60
2023-02-26T21:19:00.350Z,60.55
2023-02-26T21:21:37.058Z,60.71
2023-02-26T21:24:24.921Z,60.79
2023-02-26T21:26:59.741Z,60.93
2023-02-26T21:29:38.062Z,61.11
2023-02-26T21:32:25.696Z,61.25
2023-02-26T21:34:55.788Z,61.53
2023-02-26T21:37:43.505Z,61.41
2023-02-26T21:40:13.350Z,61.73
2023-02-26T21:42:40.556Z,61.85
2023-02-26T21:45:09.787Z,62.00
2023-02-26T21:47:37.585Z,62.25
2023-02-26T21:50:15.792Z,62.47
2023-02-26T21:53:03.305Z,62.86
2023-02-26T21:55:40.881Z,63.02
2023-02-26T21:58:28.316Z,63.15
2023-02-26T22:01:16.207Z,63.31
2023-02-26T22:03:53.298Z,63.53
2023-02-26T22:06:22.980Z,63.56
2023-02-26T22:09:10.359Z,63.73
2023-02-26T22:11:39.973Z,63.93
2023-02-26T22:14:11.992Z,63.96
2023-02-26T22:16:42.424Z,64.17
2023-02-26T22:19:09.836Z,64.28
2023-02-26T22:21:57.416Z,64.42
2023-02-26T22:24:41.224Z,64.63
2023-02-26T22:27:19.806Z,64.85
2023-02-26T22:30:09.295Z,64.95
2023-02-26T22:32:57.226Z,65.12
2023-02-26T22:35:29.738Z,65.25
2023-02-26T22:38:00.047Z,65.37
2023-02-26T22:40:47.598Z,65.55
2023-02-26T22:43:35.391Z,65.79
2023-02-26T22:46:23.326Z,65.84
2023-02-26T22:49:11.035Z,66.30
2023-02-26T22:51:58.453Z,66.35
2023-02-26T22:54:47.016Z,66.69
2023-02-26T22:57:34.452Z,66.61
2023-02-26T23:00:22.993Z,66.75
2023-02-26T23:03:10.440Z,66.83
2023-02-26T23:05:41.097Z,66.66
2023-02-26T23:08:11.485Z,66.83
2023-02-26T23:11:01.492Z,66.78
2023-02-26T23:13:39.613Z,66.72
2023-02-26T23:16:27.505Z,66.76
2023-02-26T23:19:14.903Z,66.60
2023-02-26T23:21:45.525Z,66.57
2023-02-26T23:24:31.661Z,66.27
2023-02-26T23:27:19.670Z,66.33
2023-02-26T23:29:57.985Z,66.57
2023-02-26T23:32:28.042Z,66.82
2023-02-26T23:34:58.176Z,67.14
2023-02-26T23:37:45.982Z,67.49
2023-02-26T23:40:14.900Z,67.62
2023-02-26T23:42:47.262Z,67.83
2023-02-26T23:45:15.246Z,68.07
2023-02-26T23:47:46.453Z,68.29
2023-02-26T23:50:17.216Z,68.33
2023-02-26T23:52:47.464Z,68.53
2023-02-26T23:55:35.031Z,68.79
2023-02-26T23:58:02.116Z,68.83
